createdAt,value
2023-01-27T00:01:02.487Z,5.00
2023-01-27T00:03:30.558Z,5.00
2023-01-27T00:06:01.039Z,5.00
2023-01-27T00:08:28.684Z,4.90
2023-01-27T00:11:19.018Z,4.90
2023-01-27T00:13:46.600Z,4.90
2023-01-27T00:16:14.261Z,4.90
2023-01-27T00:18:41.885Z,5.00
2023-01-27T00:21:27.098Z,5.00
2023-01-27T00:24:12.087Z,4.90
2023-01-27T00:26:41.116Z,4.90
2023-01-27T00:29:08.714Z,4.90
2023-01-27T00:31:54.368Z,4.80
2023-01-27T00:34:24.957Z,4.80
2023-01-27T00:36:52.530Z,4.80
2023-01-27T00:39:20.313Z,4.90
2023-01-27T00:41:49.243Z,4.90
2023-01-27T00:44:16.961Z,4.90
2023-01-27T00:46:44.713Z,4.90
2023-01-27T00:49:13.375Z,5.00
2023-01-27T00:51:41.380Z,5.10
2023-01-27T00:54:09.227Z,5.10
2023-01-27T00:56:37.112Z,5.10
2023-01-27T00:59:06.126Z,5.10
2023-01-27T01:01:39.807Z,5.10
2023-01-27T01:04:07.380Z,5.10
2023-01-27T01:06:35.116Z,5.00
2023-01-27T01:09:02.709Z,5.20
2023-01-27T01:11:30.585Z,5.10
2023-01-27T01:13:58.138Z,5.10
2023-01-27T01:16:27.088Z,5.10
2023-01-27T01:18:54.997Z,5.00
2023-01-27T01:21:22.637Z,5.00
2023-01-27T01:23:50.339Z,5.10
2023-01-27T01:26:18.535Z,5.10
2023-01-27T01:28:46.888Z,5.10
2023-01-27T01:31:15.741Z,5.10
2023-01-27T01:33:44.671Z,5.20
2023-01-27T01:36:13.412Z,5.10
2023-01-27T01:38:41.064Z,5.20
2023-01-27T01:41:09.510Z,5.20
2023-01-27T01:43:37.068Z,5.10
2023-01-27T01:46:04.831Z,5.00
2023-01-27T01:48:34.790Z,5.10
2023-01-27T01:51:05.731Z,5.00
2023-01-27T01:53:35.488Z,5.10
2023-01-27T01:56:06.858Z,5.10
2023-01-27T01:58:35.459Z,5.10
2023-01-27T02:01:03.997Z,5.00
2023-01-27T02:03:31.995Z,4.90
2023-01-27T02:05:59.630Z,4.90
2023-01-27T02:08:31.230Z,4.90
2023-01-27T02:10:59.132Z,5.00
2023-01-27T02:13:26.777Z,5.00
2023-01-27T02:15:55.456Z,5.00
2023-01-27T02:18:23.033Z,4.90
2023-01-27T02:20:52.160Z,5.00
2023-01-27T02:23:24.293Z,5.00
2023-01-27T02:25:54.757Z,5.20
2023-01-27T02:28:22.650Z,4.90
2023-01-27T02:30:50.378Z,4.90
2023-01-27T02:33:17.958Z,5.00
2023-01-27T02:35:49.293Z,5.00
2023-01-27T02:38:18.281Z,5.00
2023-01-27T02:40:47.236Z,4.80
2023-01-27T02:43:16.119Z,4.80
2023-01-27T02:45:43.702Z,4.80
2023-01-27T02:48:11.461Z,4.80
2023-01-27T02:50:39.047Z,4.80
2023-01-27T02:53:07.318Z,4.90
2023-01-27T02:55:34.901Z,4.80
2023-01-27T02:58:03.604Z,4.70
2023-01-27T03:00:32.565Z,4.60
2023-01-27T03:03:00.263Z,4.70
2023-01-27T03:05:28.175Z,4.70
2023-01-27T03:08:01.890Z,4.70
2023-01-27T03:10:29.482Z,4.70
2023-01-27T03:12:59.196Z,4.70
2023-01-27T03:15:44.302Z,4.60
2023-01-27T03:18:13.781Z,4.50
2023-01-27T03:20:41.830Z,4.50
2023-01-27T03:23:09.889Z,4.60
2023-01-27T03:25:37.442Z,4.60
2023-01-27T03:28:05.223Z,4.60
2023-01-27T03:30:32.797Z,4.50
2023-01-27T03:33:00.695Z,4.60
2023-01-27T03:35:34.095Z,4.50
2023-01-27T03:38:19.418Z,4.50
2023-01-27T03:41:04.296Z,4.60
2023-01-27T03:43:49.439Z,4.60
2023-01-27T03:46:19.917Z,4.60
2023-01-27T03:48:51.650Z,4.50
2023-01-27T03:51:21.306Z,4.40
2023-01-27T03:53:49.225Z,4.50
2023-01-27T03:56:17.503Z,4.60
2023-01-27T03:58:45.117Z,4.50
2023-01-27T04:01:16.490Z,4.50
2023-01-27T04:04:02.123Z,4.50
2023-01-27T04:06:49.380Z,4.40
2023-01-27T04:09:20.250Z,4.30
2023-01-27T04:11:56.236Z,4.30
2023-01-27T04:14:24.961Z,4.20
2023-01-27T04:16:53.258Z,4.40
2023-01-27T04:19:21.200Z,4.40
2023-01-27T04:21:50.237Z,4.40
2023-01-27T04:24:22.408Z,4.40
2023-01-27T04:26:55.149Z,4.40
2023-01-27T04:29:23.348Z,4.30
2023-01-27T04:31:51.156Z,4.30
2023-01-27T04:34:19.225Z,4.30
2023-01-27T04:36:47.338Z,4.20
2023-01-27T04:39:16.623Z,4.30
2023-01-27T04:41:44.812Z,4.40
2023-01-27T04:44:12.898Z,4.20
2023-01-27T04:46:40.729Z,4.20
2023-01-27T04:49:08.823Z,4.20
2023-01-27T04:51:36.542Z,4.50
2023-01-27T04:54:05.426Z,4.20
2023-01-27T04:56:35.246Z,4.00
2023-01-27T04:59:03.926Z,4.00
2023-01-27T05:01:31.579Z,4.00
2023-01-27T05:03:59.206Z,4.00
2023-01-27T05:06:27.307Z,4.00
2023-01-27T05:08:58.170Z,4.10
2023-01-27T05:11:25.819Z,4.10
2023-01-27T05:13:54.831Z,4.20
2023-01-27T05:16:23.742Z,4.00
2023-01-27T05:18:52.182Z,4.00
2023-01-27T05:21:20.693Z,4.00
2023-01-27T05:23:48.364Z,4.10
2023-01-27T05:26:17.408Z,4.10
2023-01-27T05:28:45.675Z,4.20
2023-01-27T05:31:15.799Z,4.10
2023-01-27T05:33:43.750Z,4.30
2023-01-27T05:36:13.535Z,4.10
2023-01-27T05:38:41.244Z,4.20
2023-01-27T05:41:09.751Z,4.10
2023-01-27T05:43:37.927Z,4.10
2023-01-27T05:46:06.593Z,4.20
2023-01-27T05:48:36.798Z,3.90
2023-01-27T05:51:05.311Z,4.00
2023-01-27T05:53:33.187Z,4.00
2023-01-27T05:56:00.814Z,4.00
2023-01-27T05:58:28.449Z,4.00
2023-01-27T06:00:56.519Z,4.00
2023-01-27T06:03:24.162Z,4.00
2023-01-27T06:05:54.126Z,3.90
2023-01-27T06:08:22.343Z,4.00
2023-01-27T06:10:51.456Z,4.00
2023-01-27T06:13:19.406Z,4.00
2023-01-27T06:15:48.137Z,3.80
2023-01-27T06:18:53.044Z,3.90
2023-01-27T06:21:22.128Z,3.80
2023-01-27T06:23:50.040Z,3.80
2023-01-27T06:26:19.451Z,3.80
2023-01-27T06:28:47.095Z,3.80
2023-01-27T06:31:15.991Z,3.80
2023-01-27T06:33:43.768Z,3.70
2023-01-27T06:36:12.579Z,3.80
2023-01-27T06:38:41.549Z,3.80
2023-01-27T06:41:09.143Z,3.70
2023-01-27T06:43:36.722Z,3.80
2023-01-27T06:46:05.862Z,3.80
2023-01-27T06:48:33.825Z,3.70
2023-01-27T06:51:01.419Z,3.70
2023-01-27T06:53:28.994Z,3.60
2023-01-27T06:55:58.408Z,3.70
2023-01-27T06:58:26.073Z,3.80
2023-01-27T07:00:53.725Z,3.80
2023-01-27T07:03:21.716Z,3.90
2023-01-27T07:05:49.319Z,3.80
2023-01-27T07:08:16.879Z,3.70
2023-01-27T07:10:44.470Z,3.70
2023-01-27T07:13:14.100Z,3.70
2023-01-27T07:15:41.947Z,3.80
2023-01-27T07:18:10.299Z,3.60
2023-01-27T07:20:37.981Z,3.70
2023-01-27T07:23:06.439Z,3.70
2023-01-27T07:25:35.490Z,3.70
2023-01-27T07:28:03.517Z,3.80
2023-01-27T07:30:33.766Z,3.80
2023-01-27T07:33:04.192Z,3.70
2023-01-27T07:35:31.877Z,3.80
2023-01-27T07:37:59.777Z,3.70
2023-01-27T07:40:34.211Z,3.70
2023-01-27T07:43:02.573Z,3.60
2023-01-27T07:45:30.643Z,3.70
2023-01-27T07:48:03.112Z,3.80
2023-01-27T07:50:31.142Z,3.70
2023-01-27T07:53:01.956Z,3.80
2023-01-27T07:55:31.090Z,3.70
2023-01-27T07:57:58.661Z,3.80
2023-01-27T08:00:26.603Z,3.80
2023-01-27T08:02:54.588Z,3.80
2023-01-27T08:05:23.821Z,3.90
2023-01-27T08:07:51.574Z,3.90
2023-01-27T08:10:19.753Z,3.90
2023-01-27T08:12:48.142Z,4.00
2023-01-27T08:15:18.705Z,4.00
2023-01-27T08:17:53.550Z,3.80
2023-01-27T08:20:21.231Z,3.80
2023-01-27T08:22:50.166Z,3.80
2023-01-27T08:25:17.915Z,3.80
2023-01-27T08:27:45.812Z,3.60
2023-01-27T08:30:13.968Z,3.70
2023-01-27T08:32:41.766Z,3.80
2023-01-27T08:35:09.689Z,3.70
2023-01-27T08:37:37.385Z,3.80
2023-01-27T08:40:06.816Z,3.90
2023-01-27T08:42:34.931Z,3.90
2023-01-27T08:45:02.513Z,4.00
2023-01-27T08:47:30.256Z,4.00
2023-01-27T08:49:59.587Z,4.00
2023-01-27T08:52:27.642Z,4.10
2023-01-27T08:54:55.333Z,4.00
2023-01-27T08:57:25.171Z,3.90
2023-01-27T08:59:54.022Z,3.90
2023-01-27T09:02:22.423Z,3.80
2023-01-27T09:04:50.219Z,4.00
2023-01-27T09:07:18.212Z,4.00
2023-01-27T09:09:47.249Z,4.10
2023-01-27T09:12:15.082Z,3.90
2023-01-27T09:14:44.363Z,3.70
2023-01-27T09:17:12.035Z,3.90
2023-01-27T09:19:39.698Z,3.60
2023-01-27T09:22:07.373Z,3.60
2023-01-27T09:24:35.078Z,3.60
2023-01-27T09:27:02.712Z,3.90
2023-01-27T09:29:31.125Z,3.90
2023-01-27T09:32:00.406Z,3.70
2023-01-27T09:34:28.368Z,3.60
2023-01-27T09:36:58.607Z,3.70
2023-01-27T09:39:26.511Z,3.80
2023-01-27T09:42:05.414Z,3.70
2023-01-27T09:44:42.773Z,3.70
2023-01-27T09:47:20.666Z,3.80
2023-01-27T09:49:57.155Z,3.90
2023-01-27T09:52:47.248Z,3.90
2023-01-27T09:55:18.157Z,3.80
2023-01-27T09:57:50.025Z,3.90
2023-01-27T10:00:22.652Z,3.80
2023-01-27T10:03:03.712Z,3.90
2023-01-27T10:05:38.559Z,3.90
2023-01-27T10:08:18.107Z,3.80
2023-01-27T10:10:56.971Z,4.00
2023-01-27T10:13:31.122Z,3.90
2023-01-27T10:16:05.187Z,4.00
2023-01-27T10:18:43.382Z,3.90
2023-01-27T10:21:14.105Z,3.90
2023-01-27T10:23:46.281Z,4.00
2023-01-27T10:26:19.280Z,4.10
2023-01-27T10:28:49.528Z,4.20
2023-01-27T10:31:19.493Z,4.30
2023-01-27T10:33:51.576Z,4.10
2023-01-27T10:36:23.173Z,4.20
2023-01-27T10:39:08.686Z,4.20
2023-01-27T10:41:39.439Z,4.20
2023-01-27T10:44:14.536Z,4.20
2023-01-27T10:46:46.854Z,4.30
2023-01-27T10:49:24.117Z,4.10
2023-01-27T10:51:53.418Z,4.30
2023-01-27T10:54:23.741Z,4.40
2023-01-27T10:56:53.028Z,4.40
2023-01-27T10:59:23.636Z,4.50
2023-01-27T11:01:54.132Z,4.40
2023-01-27T11:04:29.962Z,4.30
2023-01-27T11:06:59.100Z,4.50
2023-01-27T11:09:28.078Z,4.50
2023-01-27T11:11:58.290Z,4.40
2023-01-27T11:14:28.736Z,4.50
2023-01-27T11:16:59.174Z,4.50
2023-01-27T11:19:33.892Z,4.50
2023-01-27T11:22:10.267Z,4.40
2023-01-27T11:24:43.358Z,4.30
2023-01-27T11:27:15.268Z,4.20
2023-01-27T11:29:45.198Z,4.20
2023-01-27T11:32:18.468Z,4.30
2023-01-27T11:34:53.689Z,4.30
2023-01-27T11:37:22.633Z,4.00
2023-01-27T11:39:50.276Z,4.10
2023-01-27T11:42:18.229Z,4.20
2023-01-27T11:44:46.150Z,4.30
2023-01-27T11:47:21.320Z,4.20
2023-01-27T11:49:51.334Z,4.10
2023-01-27T11:52:20.322Z,4.40
2023-01-27T11:54:49.419Z,4.30
2023-01-27T11:57:19.635Z,4.30
2023-01-27T11:59:48.061Z,4.40
2023-01-27T12:02:21.051Z,4.50
2023-01-27T12:04:53.098Z,4.50
2023-01-27T12:07:23.318Z,4.70
2023-01-27T12:09:51.036Z,4.80
2023-01-27T12:12:23.415Z,4.50
2023-01-27T12:14:53.431Z,4.30
2023-01-27T12:17:25.590Z,4.40
2023-01-27T12:19:55.142Z,4.30
2023-01-27T12:22:25.924Z,4.40
2023-01-27T12:24:55.265Z,4.40
2023-01-27T12:27:25.182Z,4.30
2023-01-27T12:29:54.985Z,4.40
2023-01-27T12:32:24.646Z,4.50
2023-01-27T12:34:56.358Z,4.60
2023-01-27T12:37:24.804Z,4.60
2023-01-27T12:39:57.043Z,4.50
2023-01-27T12:42:38.915Z,4.50
2023-01-27T12:45:19.612Z,4.40
2023-01-27T12:47:56.105Z,4.30
2023-01-27T12:50:26.099Z,4.40
2023-01-27T12:52:54.445Z,4.30
2023-01-27T12:55:39.924Z,4.40
2023-01-27T12:58:10.190Z,4.40
2023-01-27T13:00:38.197Z,4.50
2023-01-27T13:03:07.930Z,4.30
2023-01-27T13:05:38.596Z,4.50
2023-01-27T13:08:13.001Z,4.40
2023-01-27T13:10:40.579Z,4.60
2023-01-27T13:13:17.962Z,4.60
2023-01-27T13:15:52.270Z,4.60
2023-01-27T13:18:21.784Z,4.30
2023-01-27T13:20:55.689Z,4.40
2023-01-27T13:23:24.425Z,4.20
2023-01-27T13:25:53.892Z,4.10
2023-01-27T13:28:23.972Z,4.10
2023-01-27T13:30:54.354Z,4.10
2023-01-27T13:33:27.786Z,4.00
2023-01-27T13:36:06.241Z,4.10
2023-01-27T13:38:41.202Z,4.00
2023-01-27T13:41:12.159Z,4.10
2023-01-27T13:43:42.049Z,4.20
2023-01-27T13:46:16.175Z,4.10
2023-01-27T13:48:46.699Z,4.00
2023-01-27T13:51:16.581Z,4.10
2023-01-27T13:53:44.912Z,4.30
2023-01-27T13:56:17.847Z,4.30
2023-01-27T13:58:51.573Z,4.30
2023-01-27T14:01:24.481Z,4.40
2023-01-27T14:04:11.164Z,4.40
2023-01-27T14:06:46.876Z,4.40
2023-01-27T14:09:20.575Z,4.20
2023-01-27T14:11:53.608Z,4.20
2023-01-27T14:14:52.498Z,4.10
2023-01-27T14:17:31.259Z,4.40
2023-01-27T14:20:04.995Z,4.30
2023-01-27T14:22:39.876Z,4.50
2023-01-27T14:25:14.471Z,4.50
2023-01-27T14:27:44.898Z,4.40
2023-01-27T14:30:17.134Z,4.30
2023-01-27T14:32:49.018Z,4.10
2023-01-27T14:35:19.595Z,4.00
2023-01-27T14:37:53.720Z,3.80
2023-01-27T14:40:22.781Z,3.50
2023-01-27T14:42:58.209Z,3.50
2023-01-27T14:45:28.679Z,3.40
2023-01-27T14:47:59.163Z,3.30
2023-01-27T14:50:32.556Z,3.30
2023-01-27T14:53:06.777Z,3.40
2023-01-27T14:55:38.416Z,3.50
2023-01-27T14:58:13.880Z,3.60
2023-01-27T15:00:48.808Z,3.70
2023-01-27T15:03:32.947Z,3.70
2023-01-27T15:06:04.824Z,3.80
2023-01-27T15:08:35.618Z,3.80
2023-01-27T15:11:20.866Z,3.70
2023-01-27T15:13:59.154Z,3.80
2023-01-27T15:16:33.745Z,3.90
2023-01-27T15:19:15.558Z,3.90
2023-01-27T15:21:50.191Z,3.80
2023-01-27T15:24:34.003Z,3.60
2023-01-27T15:27:03.870Z,3.50
2023-01-27T15:29:32.077Z,3.40
2023-01-27T15:32:13.404Z,3.60
2023-01-27T15:34:41.328Z,3.70
2023-01-27T15:37:21.836Z,3.60
2023-01-27T15:40:04.505Z,3.60
2023-01-27T15:42:52.214Z,3.50
2023-01-27T15:45:27.065Z,3.30
2023-01-27T15:47:58.777Z,3.40
2023-01-27T15:50:27.963Z,3.50
2023-01-27T15:53:06.910Z,3.50
2023-01-27T15:55:38.189Z,3.60
2023-01-27T15:58:22.319Z,3.60
2023-01-27T16:00:51.337Z,3.50
2023-01-27T16:03:28.063Z,3.50
2023-01-27T16:05:57.262Z,3.60
2023-01-27T16:08:25.650Z,3.60
2023-01-27T16:10:53.414Z,3.60
2023-01-27T16:13:26.259Z,3.40
2023-01-27T16:16:08.926Z,3.40
2023-01-27T16:18:44.569Z,3.60
2023-01-27T16:21:25.885Z,3.80
2023-01-27T16:23:56.065Z,3.60
2023-01-27T16:26:32.731Z,3.40
2023-01-27T16:29:16.945Z,3.40
2023-01-27T16:31:45.603Z,3.40
2023-01-27T16:34:18.344Z,3.30
2023-01-27T16:36:45.963Z,3.40
2023-01-27T16:39:24.751Z,3.60
2023-01-27T16:41:54.392Z,3.40
2023-01-27T16:44:25.663Z,3.50
2023-01-27T16:46:54.744Z,3.40
2023-01-27T16:49:24.221Z,3.50
2023-01-27T16:51:55.438Z,3.40
2023-01-27T16:54:25.031Z,3.20
2023-01-27T16:56:52.944Z,3.40
2023-01-27T16:59:26.706Z,3.50
2023-01-27T17:01:55.029Z,3.50
2023-01-27T17:04:24.265Z,3.40
2023-01-27T17:06:52.909Z,3.40
2023-01-27T17:09:22.055Z,3.40
2023-01-27T17:11:49.905Z,3.40
2023-01-27T17:14:30.045Z,3.30
2023-01-27T17:17:00.945Z,3.30
2023-01-27T17:19:30.144Z,3.50
2023-01-27T17:21:59.440Z,3.30
2023-01-27T17:24:28.611Z,3.40
2023-01-27T17:26:59.471Z,3.40
2023-01-27T17:29:31.911Z,3.50
2023-01-27T17:32:01.320Z,3.40
2023-01-27T17:34:29.271Z,3.30
2023-01-27T17:37:15.045Z,3.30
2023-01-27T17:39:42.796Z,3.30
2023-01-27T17:42:14.396Z,3.30
2023-01-27T17:44:42.010Z,3.30
2023-01-27T17:47:12.698Z,3.40
2023-01-27T17:49:40.592Z,3.40
2023-01-27T17:52:09.441Z,3.40
2023-01-27T17:54:38.683Z,3.40
2023-01-27T17:57:07.859Z,3.40
2023-01-27T17:59:36.089Z,3.50
2023-01-27T18:02:06.319Z,3.50
2023-01-27T18:04:38.602Z,3.60
2023-01-27T18:07:06.316Z,3.50
2023-01-27T18:09:33.969Z,3.30
2023-01-27T18:12:04.248Z,3.30
2023-01-27T18:14:34.089Z,3.40
2023-01-27T18:17:22.234Z,3.30
2023-01-27T18:19:52.340Z,3.20
2023-01-27T18:22:20.247Z,3.30
2023-01-27T18:24:52.058Z,3.40
2023-01-27T18:27:21.818Z,3.50
2023-01-27T18:29:51.930Z,3.50
2023-01-27T18:32:21.411Z,3.50
2023-01-27T18:34:50.148Z,3.60
2023-01-27T18:37:29.678Z,3.50
2023-01-27T18:39:58.868Z,3.50
2023-01-27T18:42:27.378Z,3.30
2023-01-27T18:44:55.441Z,3.30
2023-01-27T18:47:30.373Z,3.50
2023-01-27T18:50:00.379Z,3.50
2023-01-27T18:52:29.858Z,3.40
2023-01-27T18:55:00.931Z,3.30
2023-01-27T18:57:28.754Z,3.30
2023-01-27T18:59:56.332Z,3.30
2023-01-27T19:02:25.249Z,3.30
2023-01-27T19:04:53.451Z,3.30
2023-01-27T19:07:21.129Z,3.50
2023-01-27T19:09:52.177Z,3.40
2023-01-27T19:12:19.758Z,3.40
2023-01-27T19:14:48.726Z,3.30
2023-01-27T19:17:29.590Z,3.20
2023-01-27T19:19:57.185Z,3.20
2023-01-27T19:22:24.928Z,3.30
2023-01-27T19:24:53.871Z,3.40
2023-01-27T19:27:21.700Z,3.40
2023-01-27T19:29:49.625Z,3.40
2023-01-27T19:32:17.246Z,3.60
2023-01-27T19:34:44.809Z,3.40
2023-01-27T19:37:16.807Z,3.60
2023-01-27T19:39:45.676Z,3.30
2023-01-27T19:42:15.454Z,3.30
2023-01-27T19:44:43.185Z,3.50
2023-01-27T19:47:11.777Z,3.40
2023-01-27T19:49:39.441Z,3.50
2023-01-27T19:52:07.155Z,3.50
2023-01-27T19:54:35.815Z,3.60
2023-01-27T19:57:04.923Z,3.70
2023-01-27T19:59:33.927Z,3.70
2023-01-27T20:02:01.590Z,3.60
2023-01-27T20:04:29.336Z,3.40
2023-01-27T20:06:56.947Z,3.50
2023-01-27T20:09:24.556Z,3.40
2023-01-27T20:11:52.224Z,3.40
2023-01-27T20:14:20.398Z,3.40
2023-01-27T20:16:49.315Z,3.40
2023-01-27T20:19:17.236Z,3.20
2023-01-27T20:21:45.487Z,3.10
2023-01-27T20:24:14.622Z,3.10
2023-01-27T20:26:42.353Z,3.20
2023-01-27T20:29:10.144Z,3.10
2023-01-27T20:31:38.991Z,3.20
2023-01-27T20:34:08.159Z,3.10
2023-01-27T20:36:35.896Z,2.90
2023-01-27T20:39:03.665Z,3.00
2023-01-27T20:41:31.323Z,2.90
2023-01-27T20:44:00.301Z,2.80
2023-01-27T20:46:28.642Z,3.00
2023-01-27T20:48:56.298Z,3.00
2023-01-27T20:51:33.225Z,2.90
2023-01-27T20:54:00.837Z,2.90
2023-01-27T20:56:30.482Z,2.90
2023-01-27T20:58:58.106Z,2.90
2023-01-27T21:01:26.496Z,2.90
2023-01-27T21:03:54.108Z,2.90
2023-01-27T21:06:21.776Z,2.90
2023-01-27T21:08:59.982Z,3.00
2023-01-27T21:11:27.811Z,3.00
2023-01-27T21:13:56.453Z,3.10
2023-01-27T21:16:24.071Z,3.10
2023-01-27T21:18:51.762Z,3.00
2023-01-27T21:21:24.195Z,3.10
2023-01-27T21:23:51.872Z,3.20
2023-01-27T21:26:21.341Z,3.20
2023-01-27T21:28:49.040Z,3.10
2023-01-27T21:31:17.666Z,3.10
2023-01-27T21:33:46.853Z,3.10
2023-01-27T21:36:14.494Z,3.20
2023-01-27T21:38:42.148Z,3.40
2023-01-27T21:41:11.579Z,3.30
2023-01-27T21:43:58.036Z,3.40
2023-01-27T21:46:25.873Z,3.40
2023-01-27T21:48:53.498Z,3.20
2023-01-27T21:51:21.106Z,3.20
2023-01-27T21:53:48.680Z,3.30
2023-01-27T21:56:16.253Z,3.40
2023-01-27T21:58:45.171Z,3.30
2023-01-27T22:01:12.997Z,3.30
2023-01-27T22:03:40.667Z,3.40
2023-01-27T22:06:08.878Z,3.40
2023-01-27T22:08:37.153Z,3.30
2023-01-27T22:11:05.053Z,3.20
2023-01-27T22:13:35.603Z,3.20
2023-01-27T22:16:05.148Z,3.40
2023-01-27T22:18:32.783Z,3.50
2023-01-27T22:21:01.953Z,3.60
2023-01-27T22:23:29.525Z,3.50
2023-01-27T22:25:57.231Z,3.50
2023-01-27T22:28:26.452Z,3.40
2023-01-27T22:30:54.284Z,3.40
2023-01-27T22:33:23.242Z,3.30
2023-01-27T22:35:58.953Z,3.20
2023-01-27T22:38:26.659Z,3.30
2023-01-27T22:40:57.768Z,3.50
2023-01-27T22:43:25.542Z,3.40
2023-01-27T22:45:53.201Z,3.30
2023-01-27T22:48:20.883Z,3.40
2023-01-27T22:50:49.788Z,3.60
2023-01-27T22:53:17.331Z,3.50
2023-01-27T22:55:44.912Z,3.50
2023-01-27T22:58:12.728Z,3.50
2023-01-27T23:00:40.478Z,3.40
2023-01-27T23:03:09.222Z,3.40
2023-01-27T23:05:36.838Z,3.60
2023-01-27T23:08:05.899Z,3.40
2023-01-27T23:10:34.964Z,3.50
2023-01-27T23:13:02.661Z,3.50
2023-01-27T23:15:30.558Z,3.40
2023-01-27T23:17:58.214Z,3.40
2023-01-27T23:20:25.867Z,3.70
2023-01-27T23:22:53.421Z,3.50
2023-01-27T23:25:22.383Z,3.60
2023-01-27T23:27:49.957Z,3.50
2023-01-27T23:30:17.671Z,3.60
2023-01-27T23:32:45.800Z,3.70
2023-01-27T23:35:13.731Z,3.70
2023-01-27T23:37:41.537Z,3.60
2023-01-27T23:40:09.841Z,3.50
2023-01-27T23:42:44.876Z,3.40
2023-01-27T23:45:12.790Z,3.30
2023-01-27T23:47:49.395Z,3.30
2023-01-27T23:50:17.341Z,3.40
2023-01-27T23:52:44.933Z,3.50
2023-01-27T23:55:13.303Z,3.60
2023-01-27T23:57:41.527Z,3.50
